sensor_id;sensor_type;location;lat;lon;timestamp;P1;durP1;ratioP1;P2;durP2;ratioP2
3405;SDS011;10008;48.682;9.016;2023-04-25T00:02:18;8.07;;;6.20;;
3405;SDS011;10008;48.682;9.016;2023-04-25T00:04:44;7.30;;;5.73;;
3405;SDS011;10008;48.682;9.016;2023-04-25T00:07:10;6.90;;;5.50;;
3405;SDS011;10008;48.682;9.016;2023-04-25T00:09:36;6.23;;;5.07;;
3405;SDS011;10008;48.682;9.016;2023-04-25T00:12:02;7.73;;;5.10;;
3405;SDS011;10008;48.682;9.016;2023-04-25T00:14:28;7.00;;;5.23;;
3405;SDS011;10008;48.682;9.016;2023-04-25T00:16:54;9.63;;;5.80;;
3405;SDS011;10008;48.682;9.016;2023-04-25T00:19:20;7.20;;;5.13;;
3405;SDS011;10008;48.682;9.016;2023-04-25T00:21:46;6.70;;;5.60;;
3405;SDS011;10008;48.682;9.016;2023-04-25T00:24:12;7.80;;;5.27;;
3405;SDS011;10008;48.682;9.016;2023-04-25T00:26:38;6.60;;;5.70;;
3405;SDS011;10008;48.682;9.016;2023-04-25T00:29:04;6.80;;;5.70;;
3405;SDS011;10008;48.682;9.016;2023-04-25T00:31:30;7.23;;;5.70;;
3405;SDS011;10008;48.682;9.016;2023-04-25T00:33:56;6.10;;;5.30;;
3405;SDS011;10008;48.682;9.016;2023-04-25T00:36:21;7.13;;;5.47;;
3405;SDS011;10008;48.682;9.016;2023-04-25T00:38:47;6.57;;;5.23;;
3405;SDS011;10008;48.682;9.016;2023-04-25T00:41:13;6.97;;;5.50;;
3405;SDS011;10008;48.682;9.016;2023-04-25T00:43:39;6.80;;;5.30;;
3405;SDS011;10008;48.682;9.016;2023-04-25T00:46:05;6.03;;;5.00;;
3405;SDS011;10008;48.682;9.016;2023-04-25T00:48:31;6.57;;;4.83;;
3405;SDS011;10008;48.682;9.016;2023-04-25T00:50:57;6.90;;;5.20;;
3405;SDS011;10008;48.682;9.016;2023-04-25T00:53:24;8.43;;;5.33;;
3405;SDS011;10008;48.682;9.016;2023-04-25T00:55:52;6.87;;;4.70;;
3405;SDS011;10008;48.682;9.016;2023-04-25T00:58:21;6.40;;;4.97;;
3405;SDS011;10008;48.682;9.016;2023-04-25T01:00:48;6.10;;;4.80;;
3405;SDS011;10008;48.682;9.016;2023-04-25T01:03:16;8.50;;;4.70;;
3405;SDS011;10008;48.682;9.016;2023-04-25T01:05:44;6.40;;;4.83;;
3405;SDS011;10008;48.682;9.016;2023-04-25T01:08:10;8.23;;;4.63;;
3405;SDS011;10008;48.682;9.016;2023-04-25T01:10:36;6.30;;;4.87;;
3405;SDS011;10008;48.682;9.016;2023-04-25T01:13:02;8.17;;;5.27;;
3405;SDS011;10008;48.682;9.016;2023-04-25T01:15:29;8.07;;;4.57;;
3405;SDS011;10008;48.682;9.016;2023-04-25T01:17:54;9.63;;;5.67;;
3405;SDS011;10008;48.682;9.016;2023-04-25T01:20:21;9.30;;;6.37;;
3405;SDS011;10008;48.682;9.016;2023-04-25T01:22:48;9.83;;;6.57;;
3405;SDS011;10008;48.682;9.016;2023-04-25T01:25:15;6.03;;;4.13;;
3405;SDS011;10008;48.682;9.016;2023-04-25T01:27:42;7.90;;;4.30;;
3405;SDS011;10008;48.682;9.016;2023-04-25T01:30:08;8.30;;;5.23;;
3405;SDS011;10008;48.682;9.016;2023-04-25T01:32:35;7.13;;;4.23;;
3405;SDS011;10008;48.682;9.016;2023-04-25T01:35:05;6.77;;;4.17;;
3405;SDS011;10008;48.682;9.016;2023-04-25T01:37:38;9.00;;;4.07;;
3405;SDS011;10008;48.682;9.016;2023-04-25T01:40:10;7.47;;;4.00;;
3405;SDS011;10008;48.682;9.016;2023-04-25T01:42:37;7.17;;;4.07;;
3405;SDS011;10008;48.682;9.016;2023-04-25T01:45:06;8.40;;;4.47;;
3405;SDS011;10008;48.682;9.016;2023-04-25T01:47:32;7.53;;;4.13;;
3405;SDS011;10008;48.682;9.016;2023-04-25T01:50:00;7.47;;;4.10;;
3405;SDS011;10008;48.682;9.016;2023-04-25T01:52:28;7.67;;;4.43;;
3405;SDS011;10008;48.682;9.016;2023-04-25T01:54:53;16.40;;;4.83;;
3405;SDS011;10008;48.682;9.016;2023-04-25T01:57:22;7.90;;;4.33;;
3405;SDS011;10008;48.682;9.016;2023-04-25T01:59:48;8.63;;;4.70;;
3405;SDS011;10008;48.682;9.016;2023-04-25T02:02:37;6.63;;;4.40;;
3405;SDS011;10008;48.682;9.016;2023-04-25T02:05:05;7.97;;;4.63;;
3405;SDS011;10008;48.682;9.016;2023-04-25T02:07:35;9.67;;;4.77;;
3405;SDS011;10008;48.682;9.016;2023-04-25T02:10:01;8.43;;;4.73;;
3405;SDS011;10008;48.682;9.016;2023-04-25T02:12:30;7.50;;;4.40;;
3405;SDS011;10008;48.682;9.016;2023-04-25T02:15:15;8.57;;;4.60;;
3405;SDS011;10008;48.682;9.016;2023-04-25T02:17:50;9.40;;;5.03;;
3405;SDS011;10008;48.682;9.016;2023-04-25T02:20:18;8.27;;;4.90;;
3405;SDS011;10008;48.682;9.016;2023-04-25T02:22:46;7.47;;;4.37;;
3405;SDS011;10008;48.682;9.016;2023-04-25T02:25:12;7.13;;;4.43;;
3405;SDS011;10008;48.682;9.016;2023-04-25T02:27:38;7.10;;;4.40;;
3405;SDS011;10008;48.682;9.016;2023-04-25T02:30:05;9.40;;;4.43;;
3405;SDS011;10008;48.682;9.016;2023-04-25T02:32:32;9.33;;;5.07;;
3405;SDS011;10008;48.682;9.016;2023-04-25T02:34:59;6.57;;;4.03;;
3405;SDS011;10008;48.682;9.016;2023-04-25T02:37:29;6.37;;;4.50;;
3405;SDS011;10008;48.682;9.016;2023-04-25T02:39:56;8.80;;;4.23;;
3405;SDS011;10008;48.682;9.016;2023-04-25T02:42:21;8.80;;;4.33;;
3405;SDS011;10008;48.682;9.016;2023-04-25T02:44:48;9.10;;;4.93;;
3405;SDS011;10008;48.682;9.016;2023-04-25T02:47:14;7.70;;;4.30;;
3405;SDS011;10008;48.682;9.016;2023-04-25T02:49:41;7.53;;;4.43;;
3405;SDS011;10008;48.682;9.016;2023-04-25T02:52:08;7.30;;;4.40;;
3405;SDS011;10008;48.682;9.016;2023-04-25T02:54:34;7.40;;;4.17;;
3405;SDS011;10008;48.682;9.016;2023-04-25T02:57:00;8.23;;;4.50;;
3405;SDS011;10008;48.682;9.016;2023-04-25T02:59:31;6.77;;;4.00;;
3405;SDS011;10008;48.682;9.016;2023-04-25T03:01:58;7.17;;;4.50;;
3405;SDS011;10008;48.682;9.016;2023-04-25T03:04:24;7.70;;;4.50;;
3405;SDS011;10008;48.682;9.016;2023-04-25T03:06:50;8.73;;;4.90;;
3405;SDS011;10008;48.682;9.016;2023-04-25T03:09:19;8.03;;;4.30;;
3405;SDS011;10008;48.682;9.016;2023-04-25T03:11:45;7.63;;;4.53;;
3405;SDS011;10008;48.682;9.016;2023-04-25T03:14:12;8.40;;;4.83;;
3405;SDS011;10008;48.682;9.016;2023-04-25T03:16:38;6.87;;;4.67;;
3405;SDS011;10008;48.682;9.016;2023-04-25T03:19:04;8.43;;;4.90;;
3405;SDS011;10008;48.682;9.016;2023-04-25T03:21:31;8.30;;;4.37;;
3405;SDS011;10008;48.682;9.016;2023-04-25T03:24:00;7.43;;;5.20;;
3405;SDS011;10008;48.682;9.016;2023-04-25T03:26:26;8.40;;;4.70;;
3405;SDS011;10008;48.682;9.016;2023-04-25T03:28:52;9.63;;;4.90;;
3405;SDS011;10008;48.682;9.016;2023-04-25T03:31:17;9.13;;;4.33;;
3405;SDS011;10008;48.682;9.016;2023-04-25T03:33:43;8.40;;;4.77;;
3405;SDS011;10008;48.682;9.016;2023-04-25T03:36:09;8.73;;;5.10;;
3405;SDS011;10008;48.682;9.016;2023-04-25T03:38:35;6.23;;;4.40;;
3405;SDS011;10008;48.682;9.016;2023-04-25T03:41:01;8.03;;;4.40;;
3405;SDS011;10008;48.682;9.016;2023-04-25T03:43:46;6.20;;;4.30;;
3405;SDS011;10008;48.682;9.016;2023-04-25T03:46:12;6.50;;;4.33;;
3405;SDS011;10008;48.682;9.016;2023-04-25T03:48:39;7.57;;;4.70;;
3405;SDS011;10008;48.682;9.016;2023-04-25T03:51:06;8.30;;;4.23;;
3405;SDS011;10008;48.682;9.016;2023-04-25T03:53:35;8.30;;;4.50;;
3405;SDS011;10008;48.682;9.016;2023-04-25T03:56:24;8.80;;;5.30;;
3405;SDS011;10008;48.682;9.016;2023-04-25T03:58:57;9.70;;;5.17;;
3405;SDS011;10008;48.682;9.016;2023-04-25T04:01:25;10.40;;;5.10;;
3405;SDS011;10008;48.682;9.016;2023-04-25T04:03:51;7.33;;;4.43;;
3405;SDS011;10008;48.682;9.016;2023-04-25T04:06:17;9.03;;;5.20;;
3405;SDS011;10008;48.682;9.016;2023-04-25T04:08:47;7.70;;;6.00;;
3405;SDS011;10008;48.682;9.016;2023-04-25T04:11:13;8.67;;;5.53;;
3405;SDS011;10008;48.682;9.016;2023-04-25T04:13:38;8.97;;;5.83;;
3405;SDS011;10008;48.682;9.016;2023-04-25T04:16:05;8.83;;;5.80;;
3405;SDS011;10008;48.682;9.016;2023-04-25T04:18:31;9.77;;;5.63;;
3405;SDS011;10008;48.682;9.016;2023-04-25T04:20:58;12.83;;;6.30;;
3405;SDS011;10008;48.682;9.016;2023-04-25T04:23:27;9.00;;;5.70;;
3405;SDS011;10008;48.682;9.016;2023-04-25T04:25:53;11.60;;;5.77;;
3405;SDS011;10008;48.682;9.016;2023-04-25T04:28:29;9.50;;;6.40;;
3405;SDS011;10008;48.682;9.016;2023-04-25T04:31:11;11.73;;;6.30;;
3405;SDS011;10008;48.682;9.016;2023-04-25T04:33:38;8.77;;;6.30;;
3405;SDS011;10008;48.682;9.016;2023-04-25T04:36:04;15.53;;;6.60;;
3405;SDS011;10008;48.682;9.016;2023-04-25T04:38:32;8.60;;;5.60;;
3405;SDS011;10008;48.682;9.016;2023-04-25T04:41:01;10.83;;;6.97;;
3405;SDS011;10008;48.682;9.016;2023-04-25T04:43:39;11.17;;;6.80;;
3405;SDS011;10008;48.682;9.016;2023-04-25T04:46:23;9.77;;;6.07;;
3405;SDS011;10008;48.682;9.016;2023-04-25T04:49:25;9.30;;;6.17;;
3405;SDS011;10008;48.682;9.016;2023-04-25T04:52:29;9.00;;;6.40;;
3405;SDS011;10008;48.682;9.016;2023-04-25T04:55:21;10.30;;;5.70;;
3405;SDS011;10008;48.682;9.016;2023-04-25T04:58:02;8.23;;;6.30;;
3405;SDS011;10008;48.682;9.016;2023-04-25T05:00:46;8.73;;;5.57;;
3405;SDS011;10008;48.682;9.016;2023-04-25T05:03:34;9.80;;;5.77;;
3405;SDS011;10008;48.682;9.016;2023-04-25T05:06:26;11.60;;;6.30;;
3405;SDS011;10008;48.682;9.016;2023-04-25T05:09:12;10.97;;;6.87;;
3405;SDS011;10008;48.682;9.016;2023-04-25T05:11:53;11.00;;;6.87;;
3405;SDS011;10008;48.682;9.016;2023-04-25T05:14:37;8.93;;;6.63;;
3405;SDS011;10008;48.682;9.016;2023-04-25T05:17:28;8.20;;;5.60;;
3405;SDS011;10008;48.682;9.016;2023-04-25T05:20:14;8.67;;;6.27;;
3405;SDS011;10008;48.682;9.016;2023-04-25T05:22:58;9.30;;;6.00;;
3405;SDS011;10008;48.682;9.016;2023-04-25T05:25:40;8.00;;;5.90;;
3405;SDS011;10008;48.682;9.016;2023-04-25T05:28:26;8.87;;;5.93;;
3405;SDS011;10008;48.682;9.016;2023-04-25T05:31:10;10.87;;;6.40;;
3405;SDS011;10008;48.682;9.016;2023-04-25T05:34:02;8.70;;;6.00;;
3405;SDS011;10008;48.682;9.016;2023-04-25T06:26:03;15.67;;;10.80;;
3405;SDS011;10008;48.682;9.016;2023-04-25T06:28:30;14.45;;;9.90;;
3405;SDS011;10008;48.682;9.016;2023-04-25T06:30:56;10.98;;;9.88;;
3405;SDS011;10008;48.682;9.016;2023-04-25T06:33:22;11.27;;;10.13;;
3405;SDS011;10008;48.682;9.016;2023-04-25T06:35:50;10.57;;;9.47;;
3405;SDS011;10008;48.682;9.016;2023-04-25T06:38:19;10.30;;;9.27;;
3405;SDS011;10008;48.682;9.016;2023-04-25T06:40:49;11.10;;;9.90;;
3405;SDS011;10008;48.682;9.016;2023-04-25T06:43:16;10.20;;;9.10;;
3405;SDS011;10008;48.682;9.016;2023-04-25T06:46:02;10.17;;;9.07;;
3405;SDS011;10008;48.682;9.016;2023-04-25T06:48:30;13.17;;;9.57;;
3405;SDS011;10008;48.682;9.016;2023-04-25T06:50:57;10.53;;;9.40;;
3405;SDS011;10008;48.682;9.016;2023-04-25T06:53:23;16.97;;;8.90;;
3405;SDS011;10008;48.682;9.016;2023-04-25T06:55:55;11.43;;;9.40;;
3405;SDS011;10008;48.682;9.016;2023-04-25T06:58:22;10.23;;;8.97;;
3405;SDS011;10008;48.682;9.016;2023-04-25T07:01:06;10.37;;;8.70;;
3405;SDS011;10008;48.682;9.016;2023-04-25T07:03:32;10.47;;;8.60;;
3405;SDS011;10008;48.682;9.016;2023-04-25T07:06:02;10.37;;;8.40;;
3405;SDS011;10008;48.682;9.016;2023-04-25T07:08:29;11.45;;;8.80;;
3405;SDS011;10008;48.682;9.016;2023-04-25T07:10:56;10.20;;;9.10;;
3405;SDS011;10008;48.682;9.016;2023-04-25T07:13:22;10.40;;;9.40;;
3405;SDS011;10008;48.682;9.016;2023-04-25T07:15:48;13.07;;;9.17;;
3405;SDS011;10008;48.682;9.016;2023-04-25T07:18:16;11.40;;;8.93;;
3405;SDS011;10008;48.682;9.016;2023-04-25T07:20:42;11.40;;;8.80;;
3405;SDS011;10008;48.682;9.016;2023-04-25T07:23:08;11.50;;;9.40;;
3405;SDS011;10008;48.682;9.016;2023-04-25T07:25:33;9.70;;;8.70;;
3405;SDS011;10008;48.682;9.016;2023-04-25T07:28:01;13.73;;;8.80;;
3405;SDS011;10008;48.682;9.016;2023-04-25T07:30:26;13.10;;;9.40;;
3405;SDS011;10008;48.682;9.016;2023-04-25T07:32:53;12.83;;;9.30;;
3405;SDS011;10008;48.682;9.016;2023-04-25T07:35:19;9.80;;;8.37;;
3405;SDS011;10008;48.682;9.016;2023-04-25T07:37:46;8.13;;;7.00;;
3405;SDS011;10008;48.682;9.016;2023-04-25T07:40:15;10.10;;;7.70;;
3405;SDS011;10008;48.682;9.016;2023-04-25T07:42:55;9.77;;;7.63;;
3405;SDS011;10008;48.682;9.016;2023-04-25T07:45:28;10.13;;;7.57;;
3405;SDS011;10008;48.682;9.016;2023-04-25T07:47:54;8.67;;;7.37;;
3405;SDS011;10008;48.682;9.016;2023-04-25T07:50:20;9.77;;;6.90;;
3405;SDS011;10008;48.682;9.016;2023-04-25T07:52:46;8.90;;;6.90;;
3405;SDS011;10008;48.682;9.016;2023-04-25T07:55:18;10.07;;;6.93;;
3405;SDS011;10008;48.682;9.016;2023-04-25T07:58:01;10.37;;;7.63;;
3405;SDS011;10008;48.682;9.016;2023-04-25T08:00:29;10.50;;;7.23;;
3405;SDS011;10008;48.682;9.016;2023-04-25T08:03:13;9.80;;;7.00;;
3405;SDS011;10008;48.682;9.016;2023-04-25T08:05:40;10.80;;;8.00;;
3405;SDS011;10008;48.682;9.016;2023-04-25T08:08:06;10.40;;;7.73;;
3405;SDS011;10008;48.682;9.016;2023-04-25T08:10:32;9.60;;;7.37;;
3405;SDS011;10008;48.682;9.016;2023-04-25T08:12:59;11.40;;;7.40;;
3405;SDS011;10008;48.682;9.016;2023-04-25T08:15:25;10.10;;;7.90;;
3405;SDS011;10008;48.682;9.016;2023-04-25T08:17:51;9.40;;;7.20;;
3405;SDS011;10008;48.682;9.016;2023-04-25T15:19:21;12.70;;;11.63;;
3405;SDS011;10008;48.682;9.016;2023-04-25T15:21:46;13.40;;;12.30;;
3405;SDS011;10008;48.682;9.016;2023-04-25T15:24:13;13.10;;;12.00;;
3405;SDS011;10008;48.682;9.016;2023-04-25T15:26:40;13.50;;;12.40;;
3405;SDS011;10008;48.682;9.016;2023-04-25T15:29:05;13.00;;;11.90;;
3405;SDS011;10008;48.682;9.016;2023-04-25T15:31:31;12.37;;;11.40;;
3405;SDS011;10008;48.682;9.016;2023-04-25T15:33:57;12.67;;;11.57;;
3405;SDS011;10008;48.682;9.016;2023-04-25T15:36:23;13.60;;;12.47;;
3405;SDS011;10008;48.682;9.016;2023-04-25T15:38:49;11.90;;;11.00;;
3405;SDS011;10008;48.682;9.016;2023-04-25T15:41:14;12.23;;;11.23;;
3405;SDS011;10008;48.682;9.016;2023-04-25T15:43:40;11.93;;;11.03;;
3405;SDS011;10008;48.682;9.016;2023-04-25T15:46:06;12.60;;;11.60;;
3405;SDS011;10008;48.682;9.016;2023-04-25T15:48:32;29.20;;;26.10;;
3405;SDS011;10008;48.682;9.016;2023-04-25T15:50:58;12.30;;;11.30;;
3405;SDS011;10008;48.682;9.016;2023-04-25T15:53:23;13.23;;;12.03;;
3405;SDS011;10008;48.682;9.016;2023-04-25T15:55:50;13.23;;;12.03;;
3405;SDS011;10008;48.682;9.016;2023-04-25T15:58:15;13.80;;;12.70;;
3405;SDS011;10008;48.682;9.016;2023-04-25T16:00:41;13.40;;;12.30;;
3405;SDS011;10008;48.682;9.016;2023-04-25T16:03:07;13.43;;;12.33;;
3405;SDS011;10008;48.682;9.016;2023-04-25T16:05:33;13.50;;;12.17;;
3405;SDS011;10008;48.682;9.016;2023-04-25T16:07:59;13.73;;;12.43;;
3405;SDS011;10008;48.682;9.016;2023-04-25T16:10:25;13.60;;;12.30;;
3405;SDS011;10008;48.682;9.016;2023-04-25T16:12:51;14.27;;;12.97;;
3405;SDS011;10008;48.682;9.016;2023-04-25T16:15:16;15.00;;;13.63;;
3405;SDS011;10008;48.682;9.016;2023-04-25T16:17:42;14.87;;;13.37;;
3405;SDS011;10008;48.682;9.016;2023-04-25T16:20:08;15.60;;;14.13;;
3405;SDS011;10008;48.682;9.016;2023-04-25T16:22:40;14.40;;;13.10;;
3405;SDS011;10008;48.682;9.016;2023-04-25T16:25:07;13.50;;;12.30;;
3405;SDS011;10008;48.682;9.016;2023-04-25T16:27:33;14.40;;;13.00;;
3405;SDS011;10008;48.682;9.016;2023-04-25T16:29:59;15.13;;;13.73;;
3405;SDS011;10008;48.682;9.016;2023-04-25T16:32:29;14.97;;;13.50;;
3405;SDS011;10008;48.682;9.016;2023-04-25T16:34:55;14.80;;;13.27;;
3405;SDS011;10008;48.682;9.016;2023-04-25T16:37:21;15.70;;;14.30;;
3405;SDS011;10008;48.682;9.016;2023-04-25T16:39:48;14.13;;;12.90;;
3405;SDS011;10008;48.682;9.016;2023-04-25T16:42:14;15.63;;;13.90;;
3405;SDS011;10008;48.682;9.016;2023-04-25T16:44:39;17.30;;;13.57;;
3405;SDS011;10008;48.682;9.016;2023-04-25T16:47:05;15.40;;;13.90;;
3405;SDS011;10008;48.682;9.016;2023-04-25T16:49:31;15.37;;;13.87;;
3405;SDS011;10008;48.682;9.016;2023-04-25T16:51:57;15.23;;;13.73;;
3405;SDS011;10008;48.682;9.016;2023-04-25T16:54:23;14.87;;;13.37;;
3405;SDS011;10008;48.682;9.016;2023-04-25T16:56:50;15.60;;;14.10;;
3405;SDS011;10008;48.682;9.016;2023-04-25T16:59:16;15.40;;;13.90;;
3405;SDS011;10008;48.682;9.016;2023-04-25T17:01:42;16.60;;;13.97;;
3405;SDS011;10008;48.682;9.016;2023-04-25T17:04:08;14.87;;;13.57;;
3405;SDS011;10008;48.682;9.016;2023-04-25T17:06:33;16.50;;;15.00;;
3405;SDS011;10008;48.682;9.016;2023-04-25T17:08:59;16.70;;;15.10;;
3405;SDS011;10008;48.682;9.016;2023-04-25T17:11:25;15.27;;;13.77;;
3405;SDS011;10008;48.682;9.016;2023-04-25T17:13:51;15.43;;;13.97;;
3405;SDS011;10008;48.682;9.016;2023-04-25T17:16:20;14.77;;;13.27;;
3405;SDS011;10008;48.682;9.016;2023-04-25T17:18:50;15.80;;;14.20;;
3405;SDS011;10008;48.682;9.016;2023-04-25T17:21:16;14.63;;;13.33;;
3405;SDS011;10008;48.682;9.016;2023-04-25T17:23:42;15.33;;;13.77;;
3405;SDS011;10008;48.682;9.016;2023-04-25T17:26:11;15.77;;;14.03;;
3405;SDS011;10008;48.682;9.016;2023-04-25T17:28:37;14.63;;;13.27;;
3405;SDS011;10008;48.682;9.016;2023-04-25T17:31:03;14.87;;;13.50;;
3405;SDS011;10008;48.682;9.016;2023-04-25T17:33:29;16.07;;;14.37;;
3405;SDS011;10008;48.682;9.016;2023-04-25T17:35:55;15.77;;;14.17;;
3405;SDS011;10008;48.682;9.016;2023-04-25T17:38:21;15.60;;;14.10;;
3405;SDS011;10008;48.682;9.016;2023-04-25T17:40:47;16.33;;;14.73;;
3405;SDS011;10008;48.682;9.016;2023-04-25T17:43:12;14.40;;;12.90;;
3405;SDS011;10008;48.682;9.016;2023-04-25T17:45:38;14.47;;;13.07;;
3405;SDS011;10008;48.682;9.016;2023-04-25T17:48:04;14.20;;;12.83;;
3405;SDS011;10008;48.682;9.016;2023-04-25T17:50:30;14.13;;;12.30;;
3405;SDS011;10008;48.682;9.016;2023-04-25T17:52:56;13.87;;;12.47;;
3405;SDS011;10008;48.682;9.016;2023-04-25T18:40:56;12.97;;;9.83;;
3405;SDS011;10008;48.682;9.016;2023-04-25T18:43:22;11.80;;;10.23;;
3405;SDS011;10008;48.682;9.016;2023-04-25T18:45:48;13.57;;;8.63;;
3405;SDS011;10008;48.682;9.016;2023-04-25T18:48:13;20.33;;;14.33;;
3405;SDS011;10008;48.682;9.016;2023-04-25T18:50:39;16.07;;;11.80;;
3405;SDS011;10008;48.682;9.016;2023-04-25T18:53:07;10.70;;;8.57;;
3405;SDS011;10008;48.682;9.016;2023-04-25T18:55:33;12.60;;;7.97;;
3405;SDS011;10008;48.682;9.016;2023-04-25T18:57:59;11.23;;;8.10;;
3405;SDS011;10008;48.682;9.016;2023-04-25T19:00:25;11.53;;;8.37;;
3405;SDS011;10008;48.682;9.016;2023-04-25T19:02:51;9.90;;;7.27;;
3405;SDS011;10008;48.682;9.016;2023-04-25T19:05:16;10.83;;;7.70;;
3405;SDS011;10008;48.682;9.016;2023-04-25T19:07:42;10.83;;;7.50;;
3405;SDS011;10008;48.682;9.016;2023-04-25T19:10:09;11.67;;;7.53;;
3405;SDS011;10008;48.682;9.016;2023-04-25T19:12:35;8.93;;;7.00;;
3405;SDS011;10008;48.682;9.016;2023-04-25T19:15:01;10.57;;;8.00;;
3405;SDS011;10008;48.682;9.016;2023-04-25T19:17:26;10.57;;;8.30;;
3405;SDS011;10008;48.682;9.016;2023-04-25T19:19:53;9.90;;;7.63;;
3405;SDS011;10008;48.682;9.016;2023-04-25T19:22:18;9.63;;;7.60;;
3405;SDS011;10008;48.682;9.016;2023-04-25T19:24:44;9.10;;;7.30;;
3405;SDS011;10008;48.682;9.016;2023-04-25T19:27:10;10.17;;;8.23;;
3405;SDS011;10008;48.682;9.016;2023-04-25T19:29:36;10.50;;;8.70;;
3405;SDS011;10008;48.682;9.016;2023-04-25T19:32:08;10.40;;;7.70;;
3405;SDS011;10008;48.682;9.016;2023-04-25T19:34:34;10.70;;;8.33;;
3405;SDS011;10008;48.682;9.016;2023-04-25T19:37:00;10.27;;;7.47;;
3405;SDS011;10008;48.682;9.016;2023-04-25T19:39:26;11.50;;;8.30;;
3405;SDS011;10008;48.682;9.016;2023-04-25T19:41:52;10.17;;;7.63;;
3405;SDS011;10008;48.682;9.016;2023-04-25T19:44:18;8.40;;;6.43;;
3405;SDS011;10008;48.682;9.016;2023-04-25T19:46:44;7.73;;;6.27;;
3405;SDS011;10008;48.682;9.016;2023-04-25T19:49:10;9.70;;;6.10;;
3405;SDS011;10008;48.682;9.016;2023-04-25T19:51:36;8.50;;;7.10;;
3405;SDS011;10008;48.682;9.016;2023-04-25T19:54:02;8.87;;;6.90;;
3405;SDS011;10008;48.682;9.016;2023-04-25T19:56:28;9.57;;;7.20;;
3405;SDS011;10008;48.682;9.016;2023-04-25T19:58:54;8.10;;;6.07;;
3405;SDS011;10008;48.682;9.016;2023-04-25T20:01:22;8.80;;;6.80;;
3405;SDS011;10008;48.682;9.016;2023-04-25T20:03:48;9.40;;;6.80;;
3405;SDS011;10008;48.682;9.016;2023-04-25T20:06:16;8.75;;;6.10;;
3405;SDS011;10008;48.682;9.016;2023-04-25T20:08:42;8.80;;;6.80;;
3405;SDS011;10008;48.682;9.016;2023-04-25T20:11:08;8.20;;;5.80;;
3405;SDS011;10008;48.682;9.016;2023-04-25T20:13:36;9.30;;;6.20;;
3405;SDS011;10008;48.682;9.016;2023-04-25T20:16:01;7.93;;;6.23;;
3405;SDS011;10008;48.682;9.016;2023-04-25T20:18:27;10.03;;;6.80;;
3405;SDS011;10008;48.682;9.016;2023-04-25T20:20:53;8.90;;;6.33;;
3405;SDS011;10008;48.682;9.016;2023-04-25T20:23:19;9.30;;;6.20;;
3405;SDS011;10008;48.682;9.016;2023-04-25T20:25:46;12.30;;;6.53;;
3405;SDS011;10008;48.682;9.016;2023-04-25T20:28:12;10.03;;;7.60;;
3405;SDS011;10008;48.682;9.016;2023-04-25T20:30:38;11.27;;;7.00;;
3405;SDS011;10008;48.682;9.016;2023-04-25T20:33:04;8.50;;;6.37;;
3405;SDS011;10008;48.682;9.016;2023-04-25T20:35:31;10.07;;;6.43;;
3405;SDS011;10008;48.682;9.016;2023-04-25T20:37:57;9.80;;;6.60;;
3405;SDS011;10008;48.682;9.016;2023-04-25T20:40:23;10.40;;;6.70;;
3405;SDS011;10008;48.682;9.016;2023-04-25T20:42:48;9.83;;;7.17;;
3405;SDS011;10008;48.682;9.016;2023-04-25T20:45:15;9.30;;;6.18;;
3405;SDS011;10008;48.682;9.016;2023-04-25T20:47:41;12.07;;;7.17;;
3405;SDS011;10008;48.682;9.016;2023-04-25T20:50:08;10.70;;;6.57;;
3405;SDS011;10008;48.682;9.016;2023-04-25T20:52:35;10.90;;;7.27;;
3405;SDS011;10008;48.682;9.016;2023-04-25T20:55:02;10.70;;;7.37;;
3405;SDS011;10008;48.682;9.016;2023-04-25T20:57:29;9.48;;;7.22;;
3405;SDS011;10008;48.682;9.016;2023-04-25T20:59:56;10.07;;;6.80;;
3405;SDS011;10008;48.682;9.016;2023-04-25T21:02:22;10.80;;;6.60;;
3405;SDS011;10008;48.682;9.016;2023-04-25T21:04:48;13.07;;;7.57;;
3405;SDS011;10008;48.682;9.016;2023-04-25T21:07:14;11.20;;;7.53;;
3405;SDS011;10008;48.682;9.016;2023-04-25T21:09:40;18.90;;;8.83;;
3405;SDS011;10008;48.682;9.016;2023-04-25T21:12:09;10.87;;;7.50;;
3405;SDS011;10008;48.682;9.016;2023-04-25T21:14:35;10.52;;;7.50;;
3405;SDS011;10008;48.682;9.016;2023-04-25T21:17:01;10.67;;;7.27;;
3405;SDS011;10008;48.682;9.016;2023-04-25T21:19:28;13.67;;;7.63;;
3405;SDS011;10008;48.682;9.016;2023-04-25T21:21:54;10.73;;;7.80;;
3405;SDS011;10008;48.682;9.016;2023-04-25T21:24:20;12.60;;;8.30;;
3405;SDS011;10008;48.682;9.016;2023-04-25T21:26:46;11.60;;;7.80;;
3405;SDS011;10008;48.682;9.016;2023-04-25T21:29:12;11.93;;;7.80;;
3405;SDS011;10008;48.682;9.016;2023-04-25T21:31:38;10.67;;;7.67;;
3405;SDS011;10008;48.682;9.016;2023-04-25T21:34:04;11.43;;;8.10;;
3405;SDS011;10008;48.682;9.016;2023-04-25T21:36:31;13.20;;;7.47;;
3405;SDS011;10008;48.682;9.016;2023-04-25T21:38:58;12.00;;;7.80;;
3405;SDS011;10008;48.682;9.016;2023-04-25T21:41:24;11.07;;;7.63;;
3405;SDS011;10008;48.682;9.016;2023-04-25T21:43:50;11.07;;;7.80;;
3405;SDS011;10008;48.682;9.016;2023-04-25T21:46:16;11.80;;;7.40;;
3405;SDS011;10008;48.682;9.016;2023-04-25T21:48:42;11.70;;;7.13;;
3405;SDS011;10008;48.682;9.016;2023-04-25T21:51:07;12.30;;;7.97;;
3405;SDS011;10008;48.682;9.016;2023-04-25T21:53:33;12.33;;;7.60;;
3405;SDS011;10008;48.682;9.016;2023-04-25T21:55:59;10.23;;;7.20;;
3405;SDS011;10008;48.682;9.016;2023-04-25T21:58:25;13.80;;;7.50;;
3405;SDS011;10008;48.682;9.016;2023-04-25T22:00:51;10.40;;;6.77;;
3405;SDS011;10008;48.682;9.016;2023-04-25T22:03:17;8.70;;;6.18;;
3405;SDS011;10008;48.682;9.016;2023-04-25T22:05:44;9.68;;;6.47;;
3405;SDS011;10008;48.682;9.016;2023-04-25T22:08:09;8.93;;;5.90;;
3405;SDS011;10008;48.682;9.016;2023-04-25T22:10:35;9.63;;;6.40;;
3405;SDS011;10008;48.682;9.016;2023-04-25T22:13:02;7.90;;;5.60;;
3405;SDS011;10008;48.682;9.016;2023-04-25T22:15:29;9.40;;;6.20;;
3405;SDS011;10008;48.682;9.016;2023-04-25T22:17:55;8.47;;;5.87;;
3405;SDS011;10008;48.682;9.016;2023-04-25T22:20:21;9.10;;;5.70;;
3405;SDS011;10008;48.682;9.016;2023-04-25T22:22:50;10.33;;;5.90;;
3405;SDS011;10008;48.682;9.016;2023-04-25T22:25:16;9.00;;;5.73;;
3405;SDS011;10008;48.682;9.016;2023-04-25T22:27:43;10.00;;;5.93;;
3405;SDS011;10008;48.682;9.016;2023-04-25T22:30:09;9.50;;;6.10;;
3405;SDS011;10008;48.682;9.016;2023-04-25T22:32:38;11.73;;;6.77;;
3405;SDS011;10008;48.682;9.016;2023-04-25T22:35:05;10.63;;;7.17;;
3405;SDS011;10008;48.682;9.016;2023-04-25T22:37:31;11.23;;;7.70;;
3405;SDS011;10008;48.682;9.016;2023-04-25T22:39:57;12.60;;;6.57;;
3405;SDS011;10008;48.682;9.016;2023-04-25T22:42:23;10.67;;;6.87;;
3405;SDS011;10008;48.682;9.016;2023-04-25T22:44:49;11.33;;;7.50;;
3405;SDS011;10008;48.682;9.016;2023-04-25T22:47:16;10.07;;;7.20;;
3405;SDS011;10008;48.682;9.016;2023-04-25T22:49:42;11.37;;;6.97;;
3405;SDS011;10008;48.682;9.016;2023-04-25T22:52:09;10.53;;;6.80;;
3405;SDS011;10008;48.682;9.016;2023-04-25T22:54:36;10.67;;;7.47;;
3405;SDS011;10008;48.682;9.016;2023-04-25T22:57:06;14.02;;;7.82;;
3405;SDS011;10008;48.682;9.016;2023-04-25T22:59:32;11.00;;;7.63;;
3405;SDS011;10008;48.682;9.016;2023-04-25T23:02:00;10.70;;;7.90;;
3405;SDS011;10008;48.682;9.016;2023-04-25T23:04:26;14.48;;;8.65;;
3405;SDS011;10008;48.682;9.016;2023-04-25T23:06:52;11.67;;;8.90;;
3405;SDS011;10008;48.682;9.016;2023-04-25T23:09:18;12.20;;;8.77;;
3405;SDS011;10008;48.682;9.016;2023-04-25T23:11:43;13.93;;;8.50;;
3405;SDS011;10008;48.682;9.016;2023-04-25T23:14:10;12.10;;;9.00;;
3405;SDS011;10008;48.682;9.016;2023-04-25T23:16:35;14.60;;;8.50;;
3405;SDS011;10008;48.682;9.016;2023-04-25T23:19:01;13.67;;;8.63;;
3405;SDS011;10008;48.682;9.016;2023-04-25T23:21:27;16.02;;;8.50;;
3405;SDS011;10008;48.682;9.016;2023-04-25T23:23:53;14.50;;;9.60;;
3405;SDS011;10008;48.682;9.016;2023-04-25T23:26:19;17.00;;;9.37;;
3405;SDS011;10008;48.682;9.016;2023-04-25T23:28:47;14.60;;;9.50;;
3405;SDS011;10008;48.682;9.016;2023-04-25T23:31:13;14.60;;;9.27;;